Time;durP1;ratioP1;P1;durP2;ratioP2;P2;SDS_P1;SDS_P2;PMS_P1;PMS_P2;Temp;Humidity;BMP_temperature;BMP_pressure;BME280_temperature;BME280_humidity;BME280_pressure;Samples;Min_cycle;Max_cycle;Signal;HPM_P1;HPM_P2
2022/11/27 00:01:52;;;;;;;23.90;11.63;;;;;;;-0.99;100.00;97841.94;5065597;28;20110;-75
2022/11/27 00:04:18;;;;;;;18.25;10.25;;;;;;;-0.97;100.00;97831.72;5061210;28;20051;-71
2022/11/27 00:06:43;;;;;;;22.98;11.75;;;;;;;-1.14;100.00;97836.47;5082736;28;20061;-73
2022/11/27 00:09:12;;;;;;;20.55;10.82;;;;;;;-1.30;100.00;97827.53;5078570;28;20085;-72
2022/11/27 00:11:40;;;;;;;18.92;10.13;;;;;;;-1.27;100.00;97826.22;5079430;28;20049;-73
2022/11/27 00:14:07;;;;;;;17.30;9.82;;;;;;;-1.37;100.00;97830.47;5065547;28;20088;-77
2022/11/27 00:16:33;;;;;;;16.67;10.15;;;;;;;-1.46;100.00;97817.78;5083477;28;20044;-73
2022/11/27 00:18:58;;;;;;;15.18;9.52;;;;;;;-1.40;100.00;97812.19;5082853;28;20469;-75
2022/11/27 00:21:26;;;;;;;25.17;11.02;;;;;;;-1.46;100.00;97799.81;5077933;28;20041;-74
2022/11/27 00:23:54;;;;;;;20.08;10.40;;;;;;;-1.42;100.00;97808.94;5084390;28;20161;-73
2022/11/27 00:26:20;;;;;;;16.58;9.73;;;;;;;-1.65;100.00;97802.09;5081187;28;20035;-72
2022/11/27 00:28:45;;;;;;;19.13;10.30;;;;;;;-1.71;100.00;97803.16;5087290;28;20052;-71
2022/11/27 00:31:16;;;;;;;17.13;9.45;;;;;;;-1.88;100.00;97795.25;5082909;28;20135;-76
2022/11/27 00:33:42;;;;;;;15.20;9.23;;;;;;;-1.76;100.00;97793.19;5087896;28;20048;-74
2022/11/27 00:36:08;;;;;;;20.00;10.40;;;;;;;-1.91;100.00;97790.38;5064625;28;20056;-76
2022/11/27 00:38:34;;;;;;;16.95;9.68;;;;;;;-2.07;100.00;97794.88;5088746;28;20024;-74
2022/11/27 00:41:18;;;;;;;16.48;9.15;;;;;;;-1.97;100.00;97797.63;5082125;28;20048;-72
2022/11/27 00:43:44;;;;;;;18.17;10.30;;;;;;;-1.94;100.00;97797.09;5087116;28;20032;-76
2022/11/27 00:46:10;;;;;;;19.85;10.35;;;;;;;-1.87;100.00;97794.19;5082413;28;20041;-74
2022/11/27 00:48:35;;;;;;;24.95;11.57;;;;;;;-1.84;100.00;97793.66;5087366;28;20047;-72
2022/11/27 00:51:04;;;;;;;18.13;10.48;;;;;;;-1.95;100.00;97789.31;5086378;28;20040;-72
2022/11/27 00:53:30;;;;;;;19.33;10.30;;;;;;;-1.99;100.00;97793.56;5082786;28;20052;-72
2022/11/27 00:55:56;;;;;;;17.73;10.20;;;;;;;-2.03;100.00;97795.16;5065435;28;20531;-72
2022/11/27 00:58:22;;;;;;;22.15;10.48;;;;;;;-1.90;100.00;97796.59;5061449;28;20048;-71
2022/11/27 01:00:58;;;;;;;15.82;9.75;;;;;;;-1.95;100.00;97800.84;5064912;28;20147;-70
2022/11/27 01:03:25;;;;;;;20.80;10.52;;;;;;;-1.95;100.00;97789.31;5060507;28;20041;-69
2022/11/27 01:05:51;;;;;;;21.23;10.90;;;;;;;-1.98;100.00;97784.44;5066140;28;20041;-72
2022/11/27 01:08:18;;;;;;;18.75;10.20;;;;;;;-1.93;100.00;97773.72;5059828;28;20190;-69
2022/11/27 01:10:51;;;;;;;14.20;9.27;;;;;;;-1.83;100.00;97768.44;5065271;28;20072;-69
2022/11/27 01:13:17;;;;;;;14.50;9.38;;;;;;;-1.94;100.00;97762.19;5059861;28;20052;-70
2022/11/27 01:15:44;;;;;;;16.92;9.52;;;;;;;-1.97;100.00;97757.34;5064071;28;20051;-71
2022/11/27 01:18:09;;;;;;;19.00;9.77;;;;;;;-2.17;100.00;97757.22;5058866;28;20083;-70
2022/11/27 01:20:39;;;;;;;20.90;9.50;;;;;;;-2.35;100.00;97758.44;5063669;28;20126;-70
2022/11/27 01:23:06;;;;;;;20.33;9.98;;;;;;;-2.13;100.00;97748.38;5058150;28;20179;-71
2022/11/27 01:25:35;;;;;;;15.50;9.63;;;;;;;-2.19;100.00;97753.97;5062676;28;20135;-71
2022/11/27 01:28:00;;;;;;;18.38;9.57;;;;;;;-2.36;100.00;97746.06;5063695;28;20041;-71
2022/11/27 01:30:26;;;;;;;21.45;10.40;;;;;;;-2.53;100.00;97738.16;5056019;28;20063;-71
2022/11/27 01:32:51;;;;;;;18.70;10.82;;;;;;;-2.56;100.00;97731.44;5065431;28;20048;-68
2022/11/27 01:35:17;;;;;;;21.85;10.40;;;;;;;-2.40;100.00;97734.25;5044122;28;20032;-69
2022/11/27 01:37:42;;;;;;;16.48;9.95;;;;;;;-2.32;100.00;97728.41;5045127;28;20041;-71
2022/11/27 01:40:08;;;;;;;19.23;10.60;;;;;;;-2.16;100.00;97734.66;5039647;28;20143;-69
2022/11/27 01:42:34;;;;;;;21.45;10.98;;;;;;;-2.05;100.00;97728.31;5063417;28;20432;-70
2022/11/27 01:45:00;;;;;;;26.67;11.63;;;;;;;-1.96;100.00;97734.00;5062701;28;20040;-70
2022/11/27 01:47:36;;;;;;;19.30;10.32;;;;;;;-2.00;100.00;97728.34;5039165;28;20126;-73
2022/11/27 01:50:11;;;;;;;23.38;10.80;;;;;;;-1.90;100.00;97732.94;5062991;28;20033;-73
2022/11/27 01:52:39;;;;;;;20.90;10.68;;;;;;;-1.84;100.00;97729.22;5062562;28;20076;-70
2022/11/27 01:55:11;;;;;;;14.40;9.53;;;;;;;-1.96;100.00;97729.44;5039715;28;20041;-75
2022/11/27 01:57:47;;;;;;;16.77;10.68;;;;;;;-1.89;100.00;97731.06;5061960;28;20093;-69
2022/11/27 02:00:15;;;;;;;21.45;10.48;;;;;;;-1.82;100.00;97727.09;5057417;28;20032;-72
2022/11/27 02:02:42;;;;;;;17.58;9.77;;;;;;;-1.78;100.00;97717.44;5062382;28;20123;-69
2022/11/27 02:05:09;;;;;;;20.38;10.20;;;;;;;-1.75;100.00;97708.88;5056585;28;20098;-73
2022/11/27 02:07:35;;;;;;;17.45;8.77;;;;;;;-1.76;100.00;97709.91;5061214;28;20097;-72
2022/11/27 02:10:02;;;;;;;18.25;9.35;;;;;;;-1.84;100.00;97709.59;5062720;28;20040;-70
2022/11/27 02:13:03;;;;;;;15.38;9.18;;;;;;;-1.89;100.00;97707.72;5057974;28;20109;-71
2022/11/27 02:16:01;;;;;;;13.68;9.27;;;;;;;-2.05;100.00;97704.16;5025894;28;20460;-70
2022/11/27 02:18:47;;;;;;;14.23;9.35;;;;;;;-2.01;100.00;97685.63;5057590;28;20044;-71
2022/11/27 02:21:21;;;;;;;21.35;10.07;;;;;;;-1.95;100.00;97690.75;5056619;28;20045;-72
2022/11/27 02:24:05;;;;;;;16.38;9.15;;;;;;;-2.00;100.00;97682.69;5061899;28;20032;-72
2022/11/27 02:26:46;;;;;;;16.98;9.05;;;;;;;-2.16;100.00;97687.19;5061619;28;20044;-71
2022/11/27 02:29:14;;;;;;;14.07;8.50;;;;;;;-2.16;100.00;97680.97;5056572;28;20044;-71
2022/11/27 02:31:50;;;;;;;16.73;10.15;;;;;;;-1.99;100.00;97672.75;5062071;28;20040;-70
2022/11/27 02:34:31;;;;;;;17.55;9.23;;;;;;;-2.10;100.00;97677.28;5055700;28;20071;-70
2022/11/27 02:37:20;;;;;;;16.00;8.80;;;;;;;-1.96;100.00;97681.09;5061299;28;20047;-70
2022/11/27 02:39:55;;;;;;;14.82;9.07;;;;;;;-1.99;100.00;97684.28;5051712;28;20047;-69
2022/11/27 02:42:21;;;;;;;18.35;8.93;;;;;;;-1.91;100.00;97682.97;5057118;28;20040;-69
2022/11/27 02:44:54;;;;;;;15.07;8.68;;;;;;;-1.92;100.00;97689.44;5061322;28;20534;-69
2022/11/27 02:47:20;;;;;;;13.88;8.10;;;;;;;-1.94;100.00;97687.00;5056882;28;20078;-70
2022/11/27 02:49:50;;;;;;;19.13;9.27;;;;;;;-1.95;100.00;97682.69;5061943;28;20036;-70
2022/11/27 02:52:17;;;;;;;16.95;9.05;;;;;;;-1.83;100.00;97679.00;5057431;28;20121;-71
2022/11/27 02:54:46;;;;;;;18.98;9.30;;;;;;;-1.87;100.00;97677.91;5063160;28;20106;-71
2022/11/27 02:57:13;;;;;;;18.40;9.48;;;;;;;-1.89;100.00;97666.63;5058015;28;20037;-71
2022/11/27 02:59:42;;;;;;;16.80;9.30;;;;;;;-1.92;100.00;97671.44;5045206;28;20094;-71
2022/11/27 03:02:15;;;;;;;20.02;9.75;;;;;;;-1.97;100.00;97662.56;5057713;28;20048;-70
2022/11/27 03:04:47;;;;;;;15.18;8.60;;;;;;;-2.04;100.00;97664.69;5062317;28;20131;-71
2022/11/27 03:07:21;;;;;;;16.13;9.40;;;;;;;-2.07;100.00;97663.34;5054588;28;20088;-70
2022/11/27 03:09:49;;;;;;;16.08;9.20;;;;;;;-2.00;100.00;97657.72;5062308;28;20127;-71
2022/11/27 03:12:17;;;;;;;16.20;9.07;;;;;;;-2.03;100.00;97664.41;5054476;28;20074;-69
2022/11/27 03:14:44;;;;;;;16.98;8.55;;;;;;;-2.08;100.00;97669.75;5051499;28;20076;-69
2022/11/27 03:17:16;;;;;;;14.15;8.30;;;;;;;-2.13;100.00;97664.38;5055309;28;20131;-69
2022/11/27 03:19:57;;;;;;;13.73;8.43;;;;;;;-2.09;100.00;97661.97;5058673;28;20435;-69
2022/11/27 03:22:22;;;;;;;14.90;8.60;;;;;;;-2.00;100.00;97669.28;5057107;28;20504;-70
2022/11/27 03:24:48;;;;;;;15.52;9.18;;;;;;;-1.99;100.00;97662.03;5062071;28;20036;-69
2022/11/27 03:27:20;;;;;;;15.45;9.07;;;;;;;-2.04;100.00;97653.94;5055955;28;20048;-71
2022/11/27 03:29:53;;;;;;;14.80;8.60;;;;;;;-2.07;100.00;97649.09;5061010;28;20381;-71
2022/11/27 03:32:19;;;;;;;12.82;8.35;;;;;;;-2.16;100.00;97656.81;5052182;28;20036;-69
2022/11/27 03:34:46;;;;;;;16.08;8.95;;;;;;;-2.12;100.00;97655.25;5059373;28;20064;-69
2022/11/27 03:37:11;;;;;;;13.63;8.48;;;;;;;-2.12;100.00;97661.41;5054539;28;20057;-72
2022/11/27 03:39:37;;;;;;;13.50;7.78;;;;;;;-2.14;100.00;97658.19;5060859;28;20131;-70
2022/11/27 03:42:12;;;;;;;16.50;8.27;;;;;;;-2.15;100.00;97653.88;5050124;28;20086;-72
2022/11/27 03:44:55;;;;;;;14.68;8.80;;;;;;;-2.14;100.00;97649.34;5057980;28;20056;-69
2022/11/27 03:47:27;;;;;;;12.98;8.63;;;;;;;-2.22;100.00;97649.81;5055804;28;20041;-70
2022/11/27 03:50:13;;;;;;;13.80;8.50;;;;;;;-2.20;100.00;97647.69;5061686;28;20029;-70
2022/11/27 03:53:00;;;;;;;15.63;8.80;;;;;;;-2.28;100.00;97640.94;5061767;28;20036;-70
2022/11/27 03:55:40;;;;;;;13.15;8.45;;;;;;;-2.23;100.00;97638.28;5055058;28;20135;-72
2022/11/27 03:58:19;;;;;;;11.82;7.70;;;;;;;-2.34;100.00;97652.69;5036098;28;20040;-71
2022/11/27 04:00:49;;;;;;;10.60;7.47;;;;;;;-2.37;100.00;97659.41;5060967;28;20049;-69
2022/11/27 04:03:20;;;;;;;;;;;;;;;-2.41;100.00;97657.47;5057841;28;20052;-70
2022/11/27 04:05:46;;;;;;;15.40;8.20;;;;;;;-2.51;100.00;97660.91;5047152;28;19916;-69
2022/11/27 04:08:11;;;;;;;15.80;8.27;;;;;;;-2.61;100.00;97656.31;5061461;28;20097;-69
2022/11/27 04:10:37;;;;;;;14.55;8.02;;;;;;;-2.59;100.00;97659.53;5077804;28;20060;-72
2022/11/27 04:13:02;;;;;;;11.65;7.88;;;;;;;-2.69;100.00;97660.25;5073593;28;20048;-71
2022/11/27 04:15:28;;;;;;;14.98;7.60;;;;;;;-2.79;100.00;97660.19;5064950;28;20047;-70
2022/11/27 04:17:53;;;;;;;12.82;7.88;;;;;;;-2.91;100.00;97655.00;5062214;28;20042;-71
2022/11/27 04:20:18;;;;;;;15.15;8.10;;;;;;;-3.29;100.00;97654.13;5058032;28;20481;-69
2022/11/27 04:22:44;;;;;;;16.27;7.82;;;;;;;-3.46;100.00;97653.44;5065258;28;20157;-69
2022/11/27 04:25:09;;;;;;;14.93;8.27;;;;;;;-3.52;100.00;97655.25;5058937;28;20143;-71
2022/11/27 04:27:35;;;;;;;13.27;8.23;;;;;;;-3.47;100.00;97655.31;5063818;28;20045;-71
2022/11/27 04:30:00;;;;;;;14.30;8.57;;;;;;;-3.24;100.00;97644.53;5065059;28;20040;-69
2022/11/27 04:32:26;;;;;;;12.00;7.72;;;;;;;-3.22;100.00;97653.94;5057942;28;20044;-70
2022/11/27 04:34:51;;;;;;;17.38;8.52;;;;;;;-3.18;100.00;97654.25;5045794;28;20040;-71
2022/11/27 04:37:17;;;;;;;17.50;8.30;;;;;;;-2.91;100.00;97655.00;5054304;28;20040;-68
2022/11/27 04:39:42;;;;;;;15.70;8.57;;;;;;;-3.03;100.00;97648.19;5046468;28;20055;-71
2022/11/27 04:42:07;;;;;;;13.45;8.35;;;;;;;-2.98;100.00;97638.31;5035579;28;20461;-71
2022/11/27 04:44:33;;;;;;;13.70;8.35;;;;;;;-2.88;100.00;97632.25;5063473;28;20420;-69
2022/11/27 04:46:58;;;;;;;17.50;9.63;;;;;;;-2.80;100.00;97644.38;5061465;28;20519;-68
2022/11/27 04:49:23;;;;;;;13.57;8.57;;;;;;;-3.05;100.00;97636.94;5057262;28;20553;-70
2022/11/27 04:51:49;;;;;;;13.02;8.43;;;;;;;-3.11;100.00;97641.44;5064436;28;20051;-69
2022/11/27 04:54:14;;;;;;;17.75;8.73;;;;;;;-2.96;100.00;97646.91;5055249;28;20040;-69
2022/11/27 04:56:40;;;;;;;12.98;7.90;;;;;;;-2.80;100.00;97644.38;5046793;28;20036;-69
2022/11/27 04:59:05;;;;;;;16.52;8.65;;;;;;;-2.77;100.00;97646.53;5059476;28;20032;-69
2022/11/27 05:01:30;;;;;;;13.05;8.48;;;;;;;-2.66;100.00;97642.88;5064682;28;20090;-69
2022/11/27 05:03:56;;;;;;;16.40;8.85;;;;;;;-2.62;100.00;97643.94;5063751;28;20064;-69
2022/11/27 05:06:21;;;;;;;15.85;8.52;;;;;;;-2.47;100.00;97645.13;5057955;28;21079;-70
2022/11/27 05:08:48;;;;;;;14.05;8.60;;;;;;;-2.45;100.00;97645.66;5063368;28;20041;-70
2022/11/27 05:11:16;;;;;;;15.65;8.63;;;;;;;-2.59;100.00;97647.97;5057288;28;20532;-69
2022/11/27 05:13:42;;;;;;;14.50;8.35;;;;;;;-2.60;100.00;97641.00;5063223;28;20040;-69
2022/11/27 05:16:08;;;;;;;13.25;8.05;;;;;;;-2.56;100.00;97650.16;5057880;28;20043;-71
2022/11/27 05:18:33;;;;;;;12.57;7.70;;;;;;;-2.48;100.00;97648.84;5064361;28;20131;-70
2022/11/27 05:21:05;;;;;;;12.35;8.02;;;;;;;-2.46;100.00;97652.13;5064182;28;20115;-69
2022/11/27 05:23:31;;;;;;;11.80;8.10;;;;;;;-2.42;100.00;97637.91;5062703;28;20107;-70
2022/11/27 05:25:57;;;;;;;12.88;8.10;;;;;;;-2.50;100.00;97641.09;5044614;28;20032;-69
2022/11/27 05:28:23;;;;;;;15.38;8.27;;;;;;;-2.56;100.00;97634.84;5058459;28;20075;-70
2022/11/27 05:30:48;;;;;;;12.38;8.52;;;;;;;-2.60;100.00;97633.78;5062936;28;20393;-69
2022/11/27 05:33:16;;;;;;;13.15;8.25;;;;;;;-2.44;100.00;97632.00;5056804;28;20036;-69
2022/11/27 05:35:42;;;;;;;15.10;8.50;;;;;;;-2.38;100.00;97640.88;5062668;28;20049;-70
2022/11/27 05:38:08;;;;;;;13.98;8.07;;;;;;;-2.36;100.00;97641.41;5040596;28;20412;-69
2022/11/27 05:40:33;;;;;;;11.15;7.95;;;;;;;-2.31;100.00;97641.44;5063332;28;20048;-71
2022/11/27 05:42:58;;;;;;;13.80;8.48;;;;;;;-2.25;100.00;97637.75;5063617;28;20101;-71
2022/11/27 05:45:24;;;;;;;13.77;7.82;;;;;;;-2.21;100.00;97638.84;5058253;28;20462;-71
2022/11/27 05:47:49;;;;;;;13.45;8.20;;;;;;;-2.35;100.00;97640.38;5063429;28;20048;-70
2022/11/27 05:50:14;;;;;;;15.27;8.25;;;;;;;-2.27;100.00;97634.50;5058792;28;20401;-70
2022/11/27 05:52:40;;;;;;;11.02;7.88;;;;;;;-2.18;100.00;97632.13;5063378;28;20090;-71
2022/11/27 05:55:06;;;;;;;9.40;7.45;;;;;;;-2.15;100.00;97631.59;5058471;28;20044;-72
2022/11/27 05:57:31;;;;;;;12.32;8.18;;;;;;;-2.14;100.00;97633.25;5062195;28;20362;-71
2022/11/27 05:59:57;;;;;;;11.00;7.68;;;;;;;-2.14;100.00;97631.34;5062885;28;20158;-71
2022/11/27 06:02:24;;;;;;;9.75;7.15;;;;;;;-2.15;100.00;97627.03;5057832;28;20060;-69
2022/11/27 06:04:49;;;;;;;13.32;7.90;;;;;;;-2.26;100.00;97630.75;5061817;28;20109;-69
2022/11/27 06:07:15;;;;;;;12.38;7.57;;;;;;;-2.35;100.00;97635.00;5038680;28;20037;-71
2022/11/27 06:09:40;;;;;;;12.20;7.88;;;;;;;-2.47;100.00;97635.19;5062495;28;20439;-69
2022/11/27 06:12:06;;;;;;;12.10;8.13;;;;;;;-2.44;100.00;97634.69;5057767;28;20086;-66
2022/11/27 06:14:33;;;;;;;12.65;8.13;;;;;;;-2.45;100.00;97645.66;5061151;28;20062;-70
2022/11/27 06:17:00;;;;;;;13.75;8.07;;;;;;;-2.31;100.00;97638.78;5061861;28;20032;-70
2022/11/27 06:19:26;;;;;;;10.75;7.85;;;;;;;-2.17;100.00;97631.06;5061413;28;20357;-69
2022/11/27 06:21:51;;;;;;;13.98;7.82;;;;;;;-2.21;100.00;97628.09;5070331;28;20044;-69
2022/11/27 06:24:17;;;;;;;11.80;8.43;;;;;;;-2.19;100.00;97617.91;5061747;28;20044;-68
2022/11/27 06:26:42;;;;;;;12.45;8.02;;;;;;;-2.24;100.00;97617.88;5061724;28;20041;-68
2022/11/27 06:29:08;;;;;;;12.15;7.38;;;;;;;-2.29;100.00;97628.56;5056748;28;20087;-69
2022/11/27 06:31:34;;;;;;;13.88;8.50;;;;;;;-2.26;100.00;97633.44;5062595;28;20040;-68
2022/11/27 06:34:00;;;;;;;14.35;8.63;;;;;;;-2.17;100.00;97636.44;5061623;28;20461;-67
2022/11/27 06:36:32;;;;;;;11.27;7.78;;;;;;;-2.38;100.00;97644.34;5054174;28;20040;-68
2022/11/27 06:38:57;;;;;;;12.70;8.48;;;;;;;-2.57;100.00;97633.25;5062482;28;20063;-68
2022/11/27 06:41:25;;;;;;;14.35;8.75;;;;;;;-2.67;100.00;97641.22;5039446;28;20530;-70
2022/11/27 06:43:52;;;;;;;11.85;8.27;;;;;;;-2.60;100.00;97635.66;5061998;28;20032;-71
2022/11/27 06:46:19;;;;;;;13.05;8.57;;;;;;;-2.31;100.00;97639.56;5044855;28;20040;-69
2022/11/27 06:48:47;;;;;;;13.43;8.77;;;;;;;-2.14;100.00;97649.34;5062635;28;20044;-70
2022/11/27 06:51:15;;;;;;;13.20;8.43;;;;;;;-1.97;100.00;97649.13;5057483;28;20036;-71
2022/11/27 06:53:41;;;;;;;16.35;8.38;;;;;;;-1.79;100.00;97647.88;5064337;28;20066;-71
2022/11/27 06:56:18;;;;;;;15.00;8.23;;;;;;;-1.75;100.00;97640.88;5059154;28;20046;-71
2022/11/27 06:58:44;;;;;;;13.35;9.35;;;;;;;-1.67;100.00;97644.97;5063972;28;20048;-69
2022/11/27 07:01:12;;;;;;;13.80;9.18;;;;;;;-1.48;100.00;97645.28;5057530;28;20044;-70
2022/11/27 07:03:38;;;;;;;14.48;8.75;;;;;;;-1.37;100.00;97631.59;5061389;28;20044;-70
2022/11/27 07:06:06;;;;;;;14.65;8.50;;;;;;;-1.42;100.00;97630.78;5039922;28;20045;-72
2022/11/27 07:08:33;;;;;;;15.13;8.23;;;;;;;-1.40;100.00;97637.50;5043695;28;20032;-70
2022/11/27 07:11:07;;;;;;;14.40;9.43;;;;;;;-1.52;100.00;97649.56;5062175;28;20409;-67
2022/11/27 07:13:33;;;;;;;18.88;11.85;;;;;;;-1.54;100.00;97644.44;5061609;28;20040;-69
2022/11/27 07:16:00;;;;;;;17.58;10.73;;;;;;;-1.46;100.00;97638.56;5061929;28;20033;-69
2022/11/27 07:18:26;;;;;;;21.60;12.45;;;;;;;-1.29;100.00;97638.31;5055521;28;20048;-71
2022/11/27 07:20:52;;;;;;;23.00;13.50;;;;;;;-1.06;100.00;97634.31;5070817;28;20039;-71
2022/11/27 07:23:17;;;;;;;16.45;10.00;;;;;;;-0.92;100.00;97633.78;5077343;28;20153;-72
2022/11/27 07:25:42;;;;;;;15.30;8.70;;;;;;;-0.93;100.00;97626.81;5064445;28;20060;-71
2022/11/27 07:28:08;;;;;;;17.63;11.57;;;;;;;-1.63;100.00;97633.41;5077508;28;20051;-71
2022/11/27 07:30:33;;;;;;;13.43;9.25;;;;;;;-1.75;100.00;97636.34;5081228;28;20055;-71
2022/11/27 07:32:59;;;;;;;13.15;9.25;;;;;;;-1.60;100.00;97632.88;5082472;28;20052;-72
2022/11/27 07:35:24;;;;;;;12.40;8.57;;;;;;;-1.50;100.00;97632.09;5075990;28;20078;-73
2022/11/27 07:37:49;;;;;;;12.25;9.20;;;;;;;-1.59;100.00;97626.44;5085457;28;20046;-69
2022/11/27 07:40:17;;;;;;;14.40;9.13;;;;;;;-1.64;100.00;97609.50;5080136;28;20037;-71
2022/11/27 07:42:43;;;;;;;15.48;9.77;;;;;;;-1.87;100.00;97608.09;5084030;28;20055;-72
2022/11/27 07:45:10;;;;;;;21.90;14.45;;;;;;;-2.12;100.00;97605.06;5080436;28;20063;-74
2022/11/27 07:47:36;;;;;;;15.00;9.57;;;;;;;-2.07;100.00;97600.75;5071765;28;20044;-72
2022/11/27 07:50:01;;;;;;;17.65;10.02;;;;;;;-1.99;100.00;97608.31;5085997;28;20067;-74
2022/11/27 07:52:27;;;;;;;17.73;10.32;;;;;;;-1.94;100.00;97603.78;5081395;28;20036;-70
2022/11/27 07:54:52;;;;;;;16.05;10.60;;;;;;;-1.58;100.00;97611.13;5086846;28;20048;-71
2022/11/27 07:57:18;;;;;;;14.25;9.70;;;;;;;-1.10;100.00;97609.03;5083077;28;20032;-72
2022/11/27 07:59:43;;;;;;;16.48;10.05;;;;;;;-0.83;100.00;97624.09;5086621;28;20047;-71
2022/11/27 08:02:12;;;;;;;14.20;8.98;;;;;;;-0.54;100.00;97628.91;5081557;28;20063;-72
2022/11/27 08:04:37;;;;;;;14.60;9.98;;;;;;;-0.31;100.00;97632.91;5084962;28;20029;-70
2022/11/27 08:07:03;;;;;;;16.85;10.00;;;;;;;-0.35;100.00;97626.44;5082786;28;20067;-73
2022/11/27 08:09:29;;;;;;;16.95;12.27;;;;;;;-0.81;100.00;97627.31;5068411;28;20048;-71
2022/11/27 08:11:54;;;;;;;15.10;10.38;;;;;;;-0.85;100.00;97608.22;5069496;28;20083;-69
2022/11/27 08:14:20;;;;;;;25.77;11.82;;;;;;;-0.74;100.00;97605.53;5067781;28;20035;-71
2022/11/27 08:16:45;;;;;;;22.95;11.93;;;;;;;-0.81;100.00;97600.41;5085981;28;20032;-70
2022/11/27 08:19:11;;;;;;;23.48;15.55;;;;;;;-0.63;100.00;97604.41;5070711;28;20101;-69
2022/11/27 08:21:36;;;;;;;55.60;41.53;;;;;;;-0.29;100.00;97598.44;5070033;28;20059;-69
2022/11/27 08:24:02;;;;;;;17.63;11.98;;;;;;;-0.30;100.00;97584.16;5072401;28;20389;-73
2022/11/27 08:26:28;;;;;;;17.25;11.93;;;;;;;-0.19;100.00;97579.56;5065283;28;20045;-70
2022/11/27 08:28:54;;;;;;;18.98;11.73;;;;;;;-0.01;100.00;97588.91;5033173;28;20040;-69
2022/11/27 08:31:20;;;;;;;29.23;16.23;;;;;;;0.20;100.00;97573.47;5060651;28;20048;-68
2022/11/27 08:33:46;;;;;;;36.53;23.58;;;;;;;0.31;100.00;97569.63;5067091;28;20036;-69
2022/11/27 08:36:11;;;;;;;38.35;26.83;;;;;;;0.40;100.00;97574.41;5043089;28;20209;-69
2022/11/27 08:38:37;;;;;;;27.88;19.02;;;;;;;0.36;100.00;97576.84;5050560;28;20112;-71
2022/11/27 08:41:05;;;;;;;32.80;20.65;;;;;;;0.27;100.00;97573.13;5069884;28;20082;-71
2022/11/27 08:43:31;;;;;;;40.55;20.33;;;;;;;-0.05;100.00;97563.63;5050970;28;20048;-73
2022/11/27 08:45:57;;;;;;;25.58;14.88;;;;;;;0.03;100.00;97552.25;5051663;28;20155;-70
2022/11/27 08:48:23;;;;;;;23.15;11.55;;;;;;;0.28;100.00;97551.31;5059619;28;20048;-70
2022/11/27 08:50:50;;;;;;;16.13;10.60;;;;;;;0.54;100.00;97564.63;5067095;28;20037;-70
2022/11/27 08:53:15;;;;;;;18.88;12.05;;;;;;;0.80;100.00;97583.31;5062376;28;20059;-70
2022/11/27 08:55:41;;;;;;;18.83;11.65;;;;;;;0.82;100.00;97586.53;5069489;28;20052;-70
2022/11/27 08:58:07;;;;;;;22.02;12.82;;;;;;;0.88;100.00;97596.19;5046256;28;20397;-70
2022/11/27 09:00:33;;;;;;;13.25;9.35;;;;;;;1.04;100.00;97594.97;5063004;28;20440;-69
2022/11/27 09:02:59;;;;;;;12.88;9.02;;;;;;;1.04;100.00;97603.06;5064780;28;20455;-71
2022/11/27 09:05:26;;;;;;;15.63;10.00;;;;;;;1.03;100.00;97614.16;5059327;28;20135;-70
2022/11/27 09:07:51;;;;;;;14.63;9.57;;;;;;;1.15;100.00;97611.88;5065510;28;20500;-73
2022/11/27 09:10:17;;;;;;;13.50;10.27;;;;;;;1.29;100.00;97607.44;5061584;28;20048;-70
2022/11/27 09:12:45;;;;;;;14.07;9.93;;;;;;;1.47;100.00;97605.94;5031995;28;20086;-68
2022/11/27 09:15:12;;;;;;;14.70;10.57;;;;;;;1.59;100.00;97613.66;5060738;28;20202;-67
2022/11/27 09:17:38;;;;;;;17.90;10.32;;;;;;;1.61;100.00;97602.56;5048093;28;20046;-67
2022/11/27 09:20:05;;;;;;;17.52;10.10;;;;;;;1.72;100.00;97593.25;5056253;28;20037;-72
2022/11/27 09:22:32;;;;;;;13.88;10.05;;;;;;;1.65;100.00;97576.59;5063496;28;20483;-68
2022/11/27 09:24:57;;;;;;;16.83;10.52;;;;;;;1.71;100.00;97565.47;5061730;28;20556;-70
2022/11/27 09:27:23;;;;;;;19.23;13.07;;;;;;;1.55;100.00;97584.78;5055042;28;20048;-69
2022/11/27 09:29:49;;;;;;;18.65;10.77;;;;;;;1.66;100.00;97584.41;5064634;28;20040;-68
2022/11/27 09:32:14;;;;;;;16.88;10.25;;;;;;;1.75;100.00;97581.06;5057216;28;20060;-69
2022/11/27 09:34:40;;;;;;;15.27;10.20;;;;;;;1.66;100.00;97570.91;5063911;28;20151;-69
2022/11/27 09:37:06;;;;;;;27.85;18.38;;;;;;;1.52;100.00;97573.47;5057673;28;20420;-68
2022/11/27 09:39:32;;;;;;;19.20;12.75;;;;;;;1.67;100.00;97582.50;5063551;28;20040;-69
2022/11/27 09:42:00;;;;;;;15.40;9.90;;;;;;;1.85;100.00;97580.97;5046588;28;20093;-71
2022/11/27 09:44:26;;;;;;;18.13;10.50;;;;;;;2.14;100.00;97585.47;5055490;28;20492;-68
2022/11/27 09:46:53;;;;;;;17.75;9.95;;;;;;;1.63;100.00;97584.97;5048205;28;20037;-70
2022/11/27 09:49:36;;;;;;;14.98;9.63;;;;;;;1.81;100.00;97586.13;5058671;28;20044;-70
2022/11/27 09:52:10;;;;;;;16.52;10.40;;;;;;;2.10;100.00;97582.53;5063029;28;20397;-68
2022/11/27 09:55:09;;;;;;;14.10;9.38;;;;;;;2.36;100.00;97576.78;5062570;28;20040;-68
2022/11/27 09:57:37;;;;;;;16.35;10.30;;;;;;;2.47;100.00;97560.16;5061982;28;20087;-68
2022/11/27 10:00:10;;;;;;;13.57;8.65;;;;;;;2.33;100.00;97553.06;5026494;28;20041;-74
2022/11/27 10:02:36;;;;;;;29.50;21.45;;;;;;;2.11;100.00;97567.94;5059578;28;20044;-69
2022/11/27 10:05:12;;;;;;;20.77;12.77;;;;;;;2.41;100.00;97572.16;5046914;28;20104;-71
2022/11/27 10:07:59;;;;;;;18.15;12.75;;;;;;;1.88;100.00;97575.00;5031396;28;20094;-70
2022/11/27 10:10:49;;;;;;;20.00;12.70;;;;;;;1.87;100.00;97560.69;5056773;28;20124;-70
2022/11/27 10:13:37;;;;;;;21.42;15.02;;;;;;;1.61;100.00;97553.97;5056227;28;20048;-69
2022/11/27 10:16:19;;;;;;;22.30;13.70;;;;;;;1.46;100.00;97553.03;5060253;28;20044;-72
2022/11/27 10:18:53;;;;;;;21.52;13.65;;;;;;;1.53;100.00;97545.41;5062337;28;20056;-68
2022/11/27 10:21:39;;;;;;;21.70;13.68;;;;;;;1.41;100.00;97550.38;5057533;28;20062;-68
2022/11/27 10:24:22;;;;;;;54.88;29.52;;;;;;;1.37;100.00;97541.25;5040075;28;20037;-73
2022/11/27 10:26:49;;;;;;;28.70;16.90;;;;;;;1.27;100.00;97530.56;5061283;28;20703;-69
2022/11/27 10:29:38;;;;;;;24.90;16.23;;;;;;;1.33;100.00;97516.75;5054738;28;20560;-69
2022/11/27 10:32:13;;;;;;;24.42;15.07;;;;;;;1.66;100.00;97514.19;5039259;28;20044;-71
2022/11/27 10:34:48;;;;;;;28.75;15.95;;;;;;;2.05;100.00;97513.16;5061477;28;20048;-68
2022/11/27 10:37:32;;;;;;;25.98;16.73;;;;;;;2.27;100.00;97506.38;5056318;28;20493;-69
2022/11/27 10:40:17;;;;;;;28.42;18.52;;;;;;;2.15;100.00;97498.69;5060044;28;20446;-68
2022/11/27 10:43:16;;;;;;;26.25;16.67;;;;;;;2.59;100.00;97505.63;5062960;28;20131;-69
2022/11/27 10:45:53;;;;;;;33.58;17.27;;;;;;;3.25;100.00;97511.00;5061256;28;20040;-68
2022/11/27 10:48:19;;;;;;;22.45;14.60;;;;;;;3.32;100.00;97505.19;5049620;28;20044;-69
2022/11/27 10:50:45;;;;;;;27.10;14.13;;;;;;;3.26;100.00;97501.78;5061465;28;20037;-69
2022/11/27 10:53:18;;;;;;;18.08;12.07;;;;;;;3.47;100.00;97491.34;5040776;28;20051;-68
2022/11/27 10:56:14;;;;;;;16.38;11.18;;;;;;;3.54;100.00;97488.25;5046273;28;20312;-68
2022/11/27 10:59:01;;;;;;;17.77;11.88;;;;;;;4.12;100.00;97487.56;5029607;28;20036;-69
2022/11/27 11:01:39;;;;;;;16.25;10.40;;;;;;;4.17;100.00;97471.19;5057586;28;20560;-70
2022/11/27 11:04:09;;;;;;;19.73;10.80;;;;;;;4.55;100.00;97476.25;5036996;28;20048;-75
2022/11/27 11:06:40;;;;;;;;;;;;;;;4.61;100.00;97466.13;5043862;28;20132;-69
2022/11/27 11:09:17;;;;;;;15.93;9.30;;;;;;;4.60;100.00;97473.44;5021699;28;19913;-69
2022/11/27 11:11:42;;;;;;;16.25;10.32;;;;;;;4.75;100.00;97472.28;5062218;28;20500;-70
2022/11/27 11:14:34;;;;;;;17.35;10.45;;;;;;;4.51;100.00;97477.19;5038177;28;20041;-70
2022/11/27 11:17:00;;;;;;;14.95;10.02;;;;;;;3.88;100.00;97468.84;5041346;28;20071;-70
2022/11/27 11:19:37;;;;;;;17.60;10.45;;;;;;;3.64;100.00;97459.03;5048686;28;20048;-70
2022/11/27 11:22:11;;;;;;;17.30;11.98;;;;;;;3.55;100.00;97457.34;5058605;28;20501;-75
2022/11/27 11:24:42;;;;;;;18.30;12.55;;;;;;;3.77;100.00;97451.22;5062451;28;20131;-71
2022/11/27 11:27:13;;;;;;;20.10;11.77;;;;;;;2.86;100.00;97431.84;5057864;28;20382;-70